sensor_id;sensor_type;location;lat;lon;timestamp;temperature;humidity
13652;DHT22;6899;51.546;6.912;2024-03-08T00:01:21;1.50;99.90
13652;DHT22;6899;51.546;6.912;2024-03-08T00:03:50;1.40;99.90
13652;DHT22;6899;51.546;6.912;2024-03-08T00:06:17;1.30;99.90
13652;DHT22;6899;51.546;6.912;2024-03-08T00:08:44;1.30;99.90
13652;DHT22;6899;51.546;6.912;2024-03-08T00:11:11;1.20;99.90
13652;DHT22;6899;51.546;6.912;2024-03-08T00:13:37;1.10;99.90
13652;DHT22;6899;51.546;6.912;2024-03-08T00:16:05;1.00;99.90
13652;DHT22;6899;51.546;6.912;2024-03-08T00:18:31;0.90;99.90
13652;DHT22;6899;51.546;6.912;2024-03-08T00:20:59;0.80;99.90
13652;DHT22;6899;51.546;6.912;2024-03-08T00:23:26;0.70;99.90
13652;DHT22;6899;51.546;6.912;2024-03-08T00:25:53;0.80;99.90
13652;DHT22;6899;51.546;6.912;2024-03-08T00:28:21;0.70;99.90
13652;DHT22;6899;51.546;6.912;2024-03-08T00:30:50;0.70;99.90
13652;DHT22;6899;51.546;6.912;2024-03-08T00:33:17;0.70;99.90
13652;DHT22;6899;51.546;6.912;2024-03-08T00:35:44;0.70;99.90
13652;DHT22;6899;51.546;6.912;2024-03-08T00:38:12;0.70;99.90
13652;DHT22;6899;51.546;6.912;2024-03-08T00:40:39;0.70;99.90
13652;DHT22;6899;51.546;6.912;2024-03-08T00:43:06;0.60;99.90
13652;DHT22;6899;51.546;6.912;2024-03-08T00:45:33;0.50;99.90
13652;DHT22;6899;51.546;6.912;2024-03-08T00:47:59;0.60;99.90
13652;DHT22;6899;51.546;6.912;2024-03-08T00:50:26;0.50;99.90
13652;DHT22;6899;51.546;6.912;2024-03-08T00:52:53;0.60;99.90
13652;DHT22;6899;51.546;6.912;2024-03-08T00:55:21;0.60;99.90
13652;DHT22;6899;51.546;6.912;2024-03-08T00:57:48;0.60;99.90
13652;DHT22;6899;51.546;6.912;2024-03-08T01:00:16;0.60;99.90
13652;DHT22;6899;51.546;6.912;2024-03-08T01:02:43;0.50;99.90
13652;DHT22;6899;51.546;6.912;2024-03-08T01:05:10;0.60;99.90
13652;DHT22;6899;51.546;6.912;2024-03-08T01:07:37;0.50;99.90
13652;DHT22;6899;51.546;6.912;2024-03-08T01:10:04;0.50;99.90
13652;DHT22;6899;51.546;6.912;2024-03-08T01:12:36;0.60;99.90
13652;DHT22;6899;51.546;6.912;2024-03-08T01:15:03;0.60;99.90
13652;DHT22;6899;51.546;6.912;2024-03-08T01:17:30;0.70;99.90
13652;DHT22;6899;51.546;6.912;2024-03-08T01:19:57;0.70;99.90
13652;DHT22;6899;51.546;6.912;2024-03-08T01:22:24;0.60;99.90
13652;DHT22;6899;51.546;6.912;2024-03-08T01:24:50;0.60;99.90
13652;DHT22;6899;51.546;6.912;2024-03-08T01:27:17;0.60;99.90
13652;DHT22;6899;51.546;6.912;2024-03-08T01:29:45;0.60;99.90
13652;DHT22;6899;51.546;6.912;2024-03-08T01:32:12;0.60;99.90
13652;DHT22;6899;51.546;6.912;2024-03-08T01:34:40;0.40;99.90
13652;DHT22;6899;51.546;6.912;2024-03-08T01:37:07;0.40;99.90
13652;DHT22;6899;51.546;6.912;2024-03-08T01:39:34;0.30;99.90
13652;DHT22;6899;51.546;6.912;2024-03-08T01:42:01;0.20;99.90
13652;DHT22;6899;51.546;6.912;2024-03-08T01:44:28;0.20;99.90
13652;DHT22;6899;51.546;6.912;2024-03-08T01:46:57;0.20;99.90
13652;DHT22;6899;51.546;6.912;2024-03-08T01:49:24;0.20;99.90
13652;DHT22;6899;51.546;6.912;2024-03-08T01:51:53;0.20;99.90
13652;DHT22;6899;51.546;6.912;2024-03-08T01:54:22;0.20;99.90
13652;DHT22;6899;51.546;6.912;2024-03-08T01:56:50;0.20;99.90
13652;DHT22;6899;51.546;6.912;2024-03-08T01:59:18;0.40;99.90
13652;DHT22;6899;51.546;6.912;2024-03-08T02:01:46;0.40;99.90
13652;DHT22;6899;51.546;6.912;2024-03-08T02:04:14;0.40;99.90
13652;DHT22;6899;51.546;6.912;2024-03-08T02:06:42;0.40;99.90
13652;DHT22;6899;51.546;6.912;2024-03-08T02:09:08;0.40;99.90
13652;DHT22;6899;51.546;6.912;2024-03-08T02:11:35;0.30;99.90
13652;DHT22;6899;51.546;6.912;2024-03-08T02:14:03;0.30;99.90
13652;DHT22;6899;51.546;6.912;2024-03-08T02:16:31;0.30;99.90
13652;DHT22;6899;51.546;6.912;2024-03-08T02:18:58;0.40;99.90
13652;DHT22;6899;51.546;6.912;2024-03-08T02:21:27;0.30;99.90
13652;DHT22;6899;51.546;6.912;2024-03-08T02:23:53;0.20;99.90
13652;DHT22;6899;51.546;6.912;2024-03-08T02:26:20;0.30;99.90
13652;DHT22;6899;51.546;6.912;2024-03-08T02:28:48;0.20;99.90
13652;DHT22;6899;51.546;6.912;2024-03-08T02:31:15;0.20;99.90
13652;DHT22;6899;51.546;6.912;2024-03-08T02:33:42;0.10;99.90
13652;DHT22;6899;51.546;6.912;2024-03-08T02:36:09;0.10;99.90
13652;DHT22;6899;51.546;6.912;2024-03-08T02:38:37;0.10;99.90
13652;DHT22;6899;51.546;6.912;2024-03-08T02:41:04;0.10;99.90
13652;DHT22;6899;51.546;6.912;2024-03-08T02:43:31;0.00;99.90
13652;DHT22;6899;51.546;6.912;2024-03-08T02:45:58;0.00;99.90
13652;DHT22;6899;51.546;6.912;2024-03-08T02:48:25;0.00;99.90
13652;DHT22;6899;51.546;6.912;2024-03-08T02:50:52;0.00;99.90
13652;DHT22;6899;51.546;6.912;2024-03-08T02:53:19;0.10;99.90
13652;DHT22;6899;51.546;6.912;2024-03-08T02:55:47;0.20;99.90
13652;DHT22;6899;51.546;6.912;2024-03-08T02:58:14;0.10;99.90
13652;DHT22;6899;51.546;6.912;2024-03-08T03:00:41;0.20;99.90
13652;DHT22;6899;51.546;6.912;2024-03-08T03:03:09;0.20;99.90
13652;DHT22;6899;51.546;6.912;2024-03-08T03:05:36;0.10;99.90
13652;DHT22;6899;51.546;6.912;2024-03-08T03:08:03;0.00;99.90
13652;DHT22;6899;51.546;6.912;2024-03-08T03:10:34;0.10;99.90
13652;DHT22;6899;51.546;6.912;2024-03-08T03:13:03;0.00;99.90
13652;DHT22;6899;51.546;6.912;2024-03-08T03:15:30;-0.10;99.90
13652;DHT22;6899;51.546;6.912;2024-03-08T03:17:56;-0.10;99.90
13652;DHT22;6899;51.546;6.912;2024-03-08T03:20:23;0.00;99.90
13652;DHT22;6899;51.546;6.912;2024-03-08T03:22:52;0.00;99.90
13652;DHT22;6899;51.546;6.912;2024-03-08T03:25:19;0.00;99.90
13652;DHT22;6899;51.546;6.912;2024-03-08T03:27:52;0.20;99.90
13652;DHT22;6899;51.546;6.912;2024-03-08T03:30:23;0.20;99.90
13652;DHT22;6899;51.546;6.912;2024-03-08T03:32:52;0.10;99.90
13652;DHT22;6899;51.546;6.912;2024-03-08T03:35:21;0.10;99.90
13652;DHT22;6899;51.546;6.912;2024-03-08T03:37:48;0.10;99.90
13652;DHT22;6899;51.546;6.912;2024-03-08T03:40:27;0.10;99.90
13652;DHT22;6899;51.546;6.912;2024-03-08T03:42:54;0.00;99.90
13652;DHT22;6899;51.546;6.912;2024-03-08T03:45:20;0.00;99.90
13652;DHT22;6899;51.546;6.912;2024-03-08T03:47:48;0.00;99.90
13652;DHT22;6899;51.546;6.912;2024-03-08T03:50:15;0.00;99.90
13652;DHT22;6899;51.546;6.912;2024-03-08T03:52:44;0.00;99.90
13652;DHT22;6899;51.546;6.912;2024-03-08T03:55:11;-0.10;99.90
13652;DHT22;6899;51.546;6.912;2024-03-08T03:57:39;-0.10;99.90
13652;DHT22;6899;51.546;6.912;2024-03-08T04:00:07;-0.20;99.90
13652;DHT22;6899;51.546;6.912;2024-03-08T04:02:36;-0.10;99.90
13652;DHT22;6899;51.546;6.912;2024-03-08T04:05:06;-0.20;99.90
13652;DHT22;6899;51.546;6.912;2024-03-08T04:07:33;-0.10;99.90
13652;DHT22;6899;51.546;6.912;2024-03-08T04:10:00;0.00;99.90
13652;DHT22;6899;51.546;6.912;2024-03-08T04:12:26;0.10;99.90
13652;DHT22;6899;51.546;6.912;2024-03-08T04:14:54;0.20;99.90
13652;DHT22;6899;51.546;6.912;2024-03-08T04:17:21;0.20;99.90
13652;DHT22;6899;51.546;6.912;2024-03-08T04:19:49;-0.10;99.90
13652;DHT22;6899;51.546;6.912;2024-03-08T04:22:17;0.00;99.90
13652;DHT22;6899;51.546;6.912;2024-03-08T04:24:45;0.00;99.90
13652;DHT22;6899;51.546;6.912;2024-03-08T04:27:12;-0.20;99.90
13652;DHT22;6899;51.546;6.912;2024-03-08T04:29:39;-0.10;99.90
13652;DHT22;6899;51.546;6.912;2024-03-08T04:32:07;-0.10;99.90
13652;DHT22;6899;51.546;6.912;2024-03-08T04:34:34;-0.10;99.90
13652;DHT22;6899;51.546;6.912;2024-03-08T04:37:01;0.00;99.90
13652;DHT22;6899;51.546;6.912;2024-03-08T04:39:31;0.00;99.90
13652;DHT22;6899;51.546;6.912;2024-03-08T04:42:00;-0.10;99.90
13652;DHT22;6899;51.546;6.912;2024-03-08T04:44:28;-0.10;99.90
13652;DHT22;6899;51.546;6.912;2024-03-08T04:46:55;-0.20;99.90
13652;DHT22;6899;51.546;6.912;2024-03-08T04:49:22;-0.20;99.90
13652;DHT22;6899;51.546;6.912;2024-03-08T04:51:49;-0.20;99.90
13652;DHT22;6899;51.546;6.912;2024-03-08T04:54:16;-0.20;99.90
13652;DHT22;6899;51.546;6.912;2024-03-08T04:56:44;-0.40;99.90
13652;DHT22;6899;51.546;6.912;2024-03-08T04:59:11;-0.40;99.90
13652;DHT22;6899;51.546;6.912;2024-03-08T05:01:39;-0.30;99.90
13652;DHT22;6899;51.546;6.912;2024-03-08T05:04:06;-0.30;99.90
13652;DHT22;6899;51.546;6.912;2024-03-08T05:06:32;-0.40;99.90
13652;DHT22;6899;51.546;6.912;2024-03-08T05:08:59;-0.50;99.90
13652;DHT22;6899;51.546;6.912;2024-03-08T05:11:26;-0.50;99.90
13652;DHT22;6899;51.546;6.912;2024-03-08T05:13:54;-0.50;99.90
13652;DHT22;6899;51.546;6.912;2024-03-08T05:16:21;-0.70;99.90
13652;DHT22;6899;51.546;6.912;2024-03-08T05:18:50;-0.70;99.90
13652;DHT22;6899;51.546;6.912;2024-03-08T05:21:17;-0.50;99.90
13652;DHT22;6899;51.546;6.912;2024-03-08T05:23:46;-0.60;99.90
13652;DHT22;6899;51.546;6.912;2024-03-08T05:26:13;-0.60;99.90
13652;DHT22;6899;51.546;6.912;2024-03-08T05:28:40;-0.50;99.90
13652;DHT22;6899;51.546;6.912;2024-03-08T05:31:08;-0.50;99.90
13652;DHT22;6899;51.546;6.912;2024-03-08T05:33:35;-0.40;99.90
13652;DHT22;6899;51.546;6.912;2024-03-08T05:36:02;-0.40;99.90
13652;DHT22;6899;51.546;6.912;2024-03-08T05:38:29;-0.40;99.90
13652;DHT22;6899;51.546;6.912;2024-03-08T05:40:56;-0.50;99.90
13652;DHT22;6899;51.546;6.912;2024-03-08T05:43:22;-0.40;99.90
13652;DHT22;6899;51.546;6.912;2024-03-08T05:45:50;-0.50;99.90
13652;DHT22;6899;51.546;6.912;2024-03-08T05:48:18;-0.60;99.90
13652;DHT22;6899;51.546;6.912;2024-03-08T05:50:45;-0.70;99.90
13652;DHT22;6899;51.546;6.912;2024-03-08T05:53:12;-0.60;99.90
13652;DHT22;6899;51.546;6.912;2024-03-08T05:55:39;-0.60;99.90
13652;DHT22;6899;51.546;6.912;2024-03-08T05:58:06;-0.50;99.90
13652;DHT22;6899;51.546;6.912;2024-03-08T06:00:33;-0.70;99.90
13652;DHT22;6899;51.546;6.912;2024-03-08T06:03:02;-0.70;99.90
13652;DHT22;6899;51.546;6.912;2024-03-08T06:05:31;-0.70;99.90
13652;DHT22;6899;51.546;6.912;2024-03-08T06:07:59;-0.60;99.90
13652;DHT22;6899;51.546;6.912;2024-03-08T06:10:26;-0.60;99.90
13652;DHT22;6899;51.546;6.912;2024-03-08T06:12:53;-0.60;99.90
13652;DHT22;6899;51.546;6.912;2024-03-08T06:15:20;-0.50;99.90
13652;DHT22;6899;51.546;6.912;2024-03-08T06:17:47;-0.50;99.90
13652;DHT22;6899;51.546;6.912;2024-03-08T06:20:14;-0.50;99.90
13652;DHT22;6899;51.546;6.912;2024-03-08T06:22:42;-0.40;99.90
13652;DHT22;6899;51.546;6.912;2024-03-08T06:25:11;-0.50;99.90
13652;DHT22;6899;51.546;6.912;2024-03-08T06:27:39;-0.40;99.90
13652;DHT22;6899;51.546;6.912;2024-03-08T06:30:09;-0.40;99.90
13652;DHT22;6899;51.546;6.912;2024-03-08T06:32:36;-0.50;99.90
13652;DHT22;6899;51.546;6.912;2024-03-08T06:35:04;-0.40;99.90
13652;DHT22;6899;51.546;6.912;2024-03-08T06:37:31;-0.40;99.90
13652;DHT22;6899;51.546;6.912;2024-03-08T06:40:00;-0.30;99.90
13652;DHT22;6899;51.546;6.912;2024-03-08T06:42:28;-0.20;99.90
13652;DHT22;6899;51.546;6.912;2024-03-08T06:44:59;-0.10;99.90
13652;DHT22;6899;51.546;6.912;2024-03-08T06:47:30;0.10;99.90
13652;DHT22;6899;51.546;6.912;2024-03-08T06:49:57;0.20;99.90
13652;DHT22;6899;51.546;6.912;2024-03-08T06:52:24;0.20;99.90
13652;DHT22;6899;51.546;6.912;2024-03-08T06:54:51;0.30;99.90
13652;DHT22;6899;51.546;6.912;2024-03-08T06:57:19;0.60;99.90
13652;DHT22;6899;51.546;6.912;2024-03-08T06:59:47;0.80;99.90
13652;DHT22;6899;51.546;6.912;2024-03-08T07:02:14;1.10;99.90
13652;DHT22;6899;51.546;6.912;2024-03-08T07:04:41;1.50;99.90
13652;DHT22;6899;51.546;6.912;2024-03-08T07:07:08;1.90;99.90
13652;DHT22;6899;51.546;6.912;2024-03-08T07:09:35;2.30;99.90
13652;DHT22;6899;51.546;6.912;2024-03-08T07:12:02;2.40;99.90
13652;DHT22;6899;51.546;6.912;2024-03-08T07:14:31;2.60;99.90
13652;DHT22;6899;51.546;6.912;2024-03-08T07:16:58;2.90;99.90
13652;DHT22;6899;51.546;6.912;2024-03-08T07:19:24;3.20;99.90
13652;DHT22;6899;51.546;6.912;2024-03-08T07:21:51;3.40;99.90
13652;DHT22;6899;51.546;6.912;2024-03-08T07:24:18;3.60;99.90
13652;DHT22;6899;51.546;6.912;2024-03-08T07:26:58;3.90;99.90
13652;DHT22;6899;51.546;6.912;2024-03-08T07:29:25;3.90;99.90
13652;DHT22;6899;51.546;6.912;2024-03-08T07:31:53;4.00;99.90
13652;DHT22;6899;51.546;6.912;2024-03-08T07:34:33;4.00;99.90
13652;DHT22;6899;51.546;6.912;2024-03-08T07:37:00;3.80;99.90
13652;DHT22;6899;51.546;6.912;2024-03-08T07:39:26;3.90;99.90
13652;DHT22;6899;51.546;6.912;2024-03-08T07:41:53;4.00;99.90
13652;DHT22;6899;51.546;6.912;2024-03-08T07:44:20;4.00;99.90
13652;DHT22;6899;51.546;6.912;2024-03-08T07:46:47;4.20;99.90
13652;DHT22;6899;51.546;6.912;2024-03-08T07:49:15;4.30;99.90
13652;DHT22;6899;51.546;6.912;2024-03-08T07:51:42;4.40;99.90
13652;DHT22;6899;51.546;6.912;2024-03-08T07:54:08;4.30;99.90
13652;DHT22;6899;51.546;6.912;2024-03-08T07:56:35;4.40;99.90
13652;DHT22;6899;51.546;6.912;2024-03-08T07:59:02;4.50;99.90
13652;DHT22;6899;51.546;6.912;2024-03-08T08:01:30;4.40;99.90
13652;DHT22;6899;51.546;6.912;2024-03-08T08:03:58;4.30;99.90
13652;DHT22;6899;51.546;6.912;2024-03-08T08:06:28;4.30;99.90
13652;DHT22;6899;51.546;6.912;2024-03-08T08:08:57;4.20;99.90
13652;DHT22;6899;51.546;6.912;2024-03-08T08:11:26;4.00;99.90
13652;DHT22;6899;51.546;6.912;2024-03-08T08:13:53;4.10;99.90
13652;DHT22;6899;51.546;6.912;2024-03-08T08:16:20;4.30;99.90
13652;DHT22;6899;51.546;6.912;2024-03-08T08:18:47;4.30;99.90
13652;DHT22;6899;51.546;6.912;2024-03-08T08:21:14;4.50;99.90
13652;DHT22;6899;51.546;6.912;2024-03-08T08:23:42;4.80;99.90
13652;DHT22;6899;51.546;6.912;2024-03-08T08:26:10;4.90;99.90
13652;DHT22;6899;51.546;6.912;2024-03-08T08:28:36;4.90;99.90
13652;DHT22;6899;51.546;6.912;2024-03-08T08:31:03;5.00;99.90
13652;DHT22;6899;51.546;6.912;2024-03-08T08:33:30;5.10;99.90
13652;DHT22;6899;51.546;6.912;2024-03-08T08:35:57;5.10;99.90
13652;DHT22;6899;51.546;6.912;2024-03-08T08:38:24;5.20;99.90
13652;DHT22;6899;51.546;6.912;2024-03-08T08:40:52;5.40;99.90
13652;DHT22;6899;51.546;6.912;2024-03-08T08:43:19;5.40;99.90
13652;DHT22;6899;51.546;6.912;2024-03-08T08:45:49;5.60;99.90
13652;DHT22;6899;51.546;6.912;2024-03-08T08:48:20;5.70;99.90
13652;DHT22;6899;51.546;6.912;2024-03-08T08:50:46;5.70;99.90
13652;DHT22;6899;51.546;6.912;2024-03-08T08:53:14;5.70;99.90
13652;DHT22;6899;51.546;6.912;2024-03-08T08:55:42;5.70;99.90
13652;DHT22;6899;51.546;6.912;2024-03-08T08:58:12;5.80;99.90
13652;DHT22;6899;51.546;6.912;2024-03-08T09:00:39;6.10;99.90
13652;DHT22;6899;51.546;6.912;2024-03-08T09:03:06;6.20;99.90
13652;DHT22;6899;51.546;6.912;2024-03-08T09:05:33;6.40;99.90
13652;DHT22;6899;51.546;6.912;2024-03-08T09:08:00;6.60;99.90
13652;DHT22;6899;51.546;6.912;2024-03-08T09:10:28;6.70;99.90
13652;DHT22;6899;51.546;6.912;2024-03-08T09:12:55;6.80;99.90
13652;DHT22;6899;51.546;6.912;2024-03-08T09:15:23;7.00;99.90
13652;DHT22;6899;51.546;6.912;2024-03-08T09:17:51;7.20;99.90
13652;DHT22;6899;51.546;6.912;2024-03-08T09:20:18;7.20;99.90
13652;DHT22;6899;51.546;6.912;2024-03-08T09:22:46;7.30;99.90
13652;DHT22;6899;51.546;6.912;2024-03-08T09:25:13;7.00;99.90
13652;DHT22;6899;51.546;6.912;2024-03-08T09:27:39;7.10;99.90
13652;DHT22;6899;51.546;6.912;2024-03-08T09:30:07;6.90;99.90
13652;DHT22;6899;51.546;6.912;2024-03-08T09:32:35;7.00;99.90
13652;DHT22;6899;51.546;6.912;2024-03-08T09:35:03;7.30;99.90
13652;DHT22;6899;51.546;6.912;2024-03-08T09:37:32;7.30;99.90
13652;DHT22;6899;51.546;6.912;2024-03-08T09:39:59;7.40;99.90
13652;DHT22;6899;51.546;6.912;2024-03-08T09:42:29;7.30;99.90
13652;DHT22;6899;51.546;6.912;2024-03-08T09:44:57;7.50;99.90
13652;DHT22;6899;51.546;6.912;2024-03-08T09:47:25;7.40;99.90
13652;DHT22;6899;51.546;6.912;2024-03-08T09:49:56;7.30;99.90
13652;DHT22;6899;51.546;6.912;2024-03-08T09:52:22;7.40;99.90
13652;DHT22;6899;51.546;6.912;2024-03-08T09:54:49;7.50;99.90
13652;DHT22;6899;51.546;6.912;2024-03-08T09:57:16;7.60;99.90
13652;DHT22;6899;51.546;6.912;2024-03-08T09:59:44;7.80;99.90
13652;DHT22;6899;51.546;6.912;2024-03-08T10:02:15;8.00;99.90
13652;DHT22;6899;51.546;6.912;2024-03-08T10:04:43;8.10;99.90
13652;DHT22;6899;51.546;6.912;2024-03-08T10:07:13;8.10;99.90
13652;DHT22;6899;51.546;6.912;2024-03-08T10:09:40;8.10;99.90
13652;DHT22;6899;51.546;6.912;2024-03-08T10:12:08;8.10;99.90
13652;DHT22;6899;51.546;6.912;2024-03-08T10:14:39;8.10;99.90
13652;DHT22;6899;51.546;6.912;2024-03-08T10:17:06;8.00;99.90
13652;DHT22;6899;51.546;6.912;2024-03-08T10:19:33;8.20;99.90
13652;DHT22;6899;51.546;6.912;2024-03-08T10:22:00;8.30;99.90
13652;DHT22;6899;51.546;6.912;2024-03-08T10:24:28;8.40;99.60
13652;DHT22;6899;51.546;6.912;2024-03-08T10:26:58;8.80;99.90
13652;DHT22;6899;51.546;6.912;2024-03-08T10:29:25;8.90;98.30
13652;DHT22;6899;51.546;6.912;2024-03-08T10:31:52;8.70;98.70
13652;DHT22;6899;51.546;6.912;2024-03-08T10:34:18;8.70;99.20
13652;DHT22;6899;51.546;6.912;2024-03-08T10:36:47;8.80;98.80
13652;DHT22;6899;51.546;6.912;2024-03-08T10:39:21;8.80;97.30
13652;DHT22;6899;51.546;6.912;2024-03-08T10:41:53;8.80;96.40
13652;DHT22;6899;51.546;6.912;2024-03-08T10:44:33;8.80;98.10
13652;DHT22;6899;51.546;6.912;2024-03-08T10:47:15;8.70;98.80
13652;DHT22;6899;51.546;6.912;2024-03-08T10:49:51;8.90;96.80
13652;DHT22;6899;51.546;6.912;2024-03-08T10:52:19;8.90;97.70
13652;DHT22;6899;51.546;6.912;2024-03-08T10:54:47;9.00;96.10
13652;DHT22;6899;51.546;6.912;2024-03-08T10:57:18;8.90;96.90
13652;DHT22;6899;51.546;6.912;2024-03-08T10:59:46;8.90;96.60
13652;DHT22;6899;51.546;6.912;2024-03-08T11:02:16;8.90;96.20
13652;DHT22;6899;51.546;6.912;2024-03-08T11:04:48;8.90;97.00
13652;DHT22;6899;51.546;6.912;2024-03-08T11:07:15;9.00;97.50
13652;DHT22;6899;51.546;6.912;2024-03-08T11:09:45;9.20;95.90
13652;DHT22;6899;51.546;6.912;2024-03-08T11:12:22;9.30;96.30
13652;DHT22;6899;51.546;6.912;2024-03-08T11:14:55;9.40;95.80
13652;DHT22;6899;51.546;6.912;2024-03-08T11:17:27;9.50;97.40
13652;DHT22;6899;51.546;6.912;2024-03-08T11:20:09;9.50;96.10
13652;DHT22;6899;51.546;6.912;2024-03-08T11:22:41;9.60;93.80
13652;DHT22;6899;51.546;6.912;2024-03-08T11:25:31;9.50;94.90
13652;DHT22;6899;51.546;6.912;2024-03-08T11:28:09;9.60;94.60
13652;DHT22;6899;51.546;6.912;2024-03-08T11:30:42;9.60;95.20
13652;DHT22;6899;51.546;6.912;2024-03-08T11:33:11;9.60;95.00
13652;DHT22;6899;51.546;6.912;2024-03-08T11:35:39;9.70;95.20
13652;DHT22;6899;51.546;6.912;2024-03-08T11:38:07;9.80;93.30
13652;DHT22;6899;51.546;6.912;2024-03-08T11:40:35;9.70;93.70
13652;DHT22;6899;51.546;6.912;2024-03-08T11:43:03;9.70;95.10
13652;DHT22;6899;51.546;6.912;2024-03-08T11:45:34;9.70;93.90
13652;DHT22;6899;51.546;6.912;2024-03-08T11:48:02;9.70;93.40
13652;DHT22;6899;51.546;6.912;2024-03-08T11:50:30;9.70;92.80
13652;DHT22;6899;51.546;6.912;2024-03-08T11:53:02;9.80;94.20
13652;DHT22;6899;51.546;6.912;2024-03-08T11:55:29;10.00;93.50
13652;DHT22;6899;51.546;6.912;2024-03-08T11:58:01;10.10;94.10
13652;DHT22;6899;51.546;6.912;2024-03-08T12:00:28;9.80;92.80
13652;DHT22;6899;51.546;6.912;2024-03-08T12:03:08;10.00;92.80
13652;DHT22;6899;51.546;6.912;2024-03-08T12:05:36;10.20;94.60
13652;DHT22;6899;51.546;6.912;2024-03-08T12:08:04;10.00;92.10
13652;DHT22;6899;51.546;6.912;2024-03-08T12:10:32;10.10;93.30
13652;DHT22;6899;51.546;6.912;2024-03-08T12:13:00;10.30;91.80
13652;DHT22;6899;51.546;6.912;2024-03-08T12:15:29;10.40;93.20
13652;DHT22;6899;51.546;6.912;2024-03-08T12:17:58;10.50;92.30
13652;DHT22;6899;51.546;6.912;2024-03-08T12:20:28;10.40;90.50
13652;DHT22;6899;51.546;6.912;2024-03-08T12:22:56;10.20;90.60
13652;DHT22;6899;51.546;6.912;2024-03-08T12:25:26;10.30;91.80
13652;DHT22;6899;51.546;6.912;2024-03-08T12:27:57;10.20;90.70
13652;DHT22;6899;51.546;6.912;2024-03-08T12:30:33;10.20;93.40
13652;DHT22;6899;51.546;6.912;2024-03-08T12:33:00;10.40;91.50
13652;DHT22;6899;51.546;6.912;2024-03-08T12:35:29;10.60;91.30
13652;DHT22;6899;51.546;6.912;2024-03-08T12:37:59;10.50;91.70
13652;DHT22;6899;51.546;6.912;2024-03-08T12:40:27;10.60;90.50
13652;DHT22;6899;51.546;6.912;2024-03-08T12:42:54;10.80;90.90
13652;DHT22;6899;51.546;6.912;2024-03-08T12:45:21;10.80;89.60
13652;DHT22;6899;51.546;6.912;2024-03-08T12:47:49;10.90;89.20
13652;DHT22;6899;51.546;6.912;2024-03-08T12:50:16;10.90;91.30
13652;DHT22;6899;51.546;6.912;2024-03-08T12:52:45;11.00;89.60
13652;DHT22;6899;51.546;6.912;2024-03-08T12:55:12;10.80;87.80
13652;DHT22;6899;51.546;6.912;2024-03-08T12:57:39;10.90;84.90
13652;DHT22;6899;51.546;6.912;2024-03-08T13:00:07;11.00;89.20
13652;DHT22;6899;51.546;6.912;2024-03-08T13:02:39;11.00;88.00
13652;DHT22;6899;51.546;6.912;2024-03-08T13:05:06;11.10;85.10
13652;DHT22;6899;51.546;6.912;2024-03-08T13:07:35;11.20;85.50
13652;DHT22;6899;51.546;6.912;2024-03-08T13:10:05;11.20;87.20
13652;DHT22;6899;51.546;6.912;2024-03-08T13:12:32;11.60;88.50
13652;DHT22;6899;51.546;6.912;2024-03-08T13:15:02;11.80;82.40
13652;DHT22;6899;51.546;6.912;2024-03-08T13:17:30;11.80;81.50
13652;DHT22;6899;51.546;6.912;2024-03-08T13:19:57;11.80;83.40
13652;DHT22;6899;51.546;6.912;2024-03-08T13:22:24;11.70;82.50
13652;DHT22;6899;51.546;6.912;2024-03-08T13:24:51;11.80;80.20
13652;DHT22;6899;51.546;6.912;2024-03-08T13:27:20;11.70;78.20
13652;DHT22;6899;51.546;6.912;2024-03-08T13:29:47;11.80;78.50
13652;DHT22;6899;51.546;6.912;2024-03-08T13:32:15;12.10;80.10
13652;DHT22;6899;51.546;6.912;2024-03-08T13:34:42;12.30;76.70
13652;DHT22;6899;51.546;6.912;2024-03-08T13:37:10;12.10;76.00
13652;DHT22;6899;51.546;6.912;2024-03-08T13:39:37;12.00;74.40
13652;DHT22;6899;51.546;6.912;2024-03-08T13:42:09;12.00;71.40
13652;DHT22;6899;51.546;6.912;2024-03-08T13:44:43;12.20;73.20
13652;DHT22;6899;51.546;6.912;2024-03-08T13:47:09;12.30;69.10
13652;DHT22;6899;51.546;6.912;2024-03-08T13:49:37;12.40;67.80
13652;DHT22;6899;51.546;6.912;2024-03-08T13:52:05;12.30;66.20
13652;DHT22;6899;51.546;6.912;2024-03-08T13:54:33;12.30;65.80
13652;DHT22;6899;51.546;6.912;2024-03-08T13:57:00;12.20;63.10
13652;DHT22;6899;51.546;6.912;2024-03-08T13:59:29;12.20;67.50
13652;DHT22;6899;51.546;6.912;2024-03-08T14:01:57;12.20;67.00
13652;DHT22;6899;51.546;6.912;2024-03-08T14:04:25;12.10;66.40
13652;DHT22;6899;51.546;6.912;2024-03-08T14:06:52;12.10;68.30
13652;DHT22;6899;51.546;6.912;2024-03-08T14:09:23;12.00;66.20
13652;DHT22;6899;51.546;6.912;2024-03-08T14:11:50;12.10;69.30
13652;DHT22;6899;51.546;6.912;2024-03-08T14:14:20;12.00;67.10
13652;DHT22;6899;51.546;6.912;2024-03-08T14:16:49;11.90;69.50
13652;DHT22;6899;51.546;6.912;2024-03-08T14:19:19;11.90;67.10
13652;DHT22;6899;51.546;6.912;2024-03-08T14:21:46;11.80;68.20
13652;DHT22;6899;51.546;6.912;2024-03-08T14:24:14;11.70;69.10
13652;DHT22;6899;51.546;6.912;2024-03-08T14:26:41;11.70;71.10
13652;DHT22;6899;51.546;6.912;2024-03-08T14:29:08;11.70;70.70
13652;DHT22;6899;51.546;6.912;2024-03-08T14:31:36;11.50;71.10
13652;DHT22;6899;51.546;6.912;2024-03-08T14:34:03;11.50;71.60
13652;DHT22;6899;51.546;6.912;2024-03-08T14:36:31;11.60;69.80
13652;DHT22;6899;51.546;6.912;2024-03-08T14:38:58;11.60;71.30
13652;DHT22;6899;51.546;6.912;2024-03-08T14:41:25;11.60;70.80
13652;DHT22;6899;51.546;6.912;2024-03-08T14:43:52;11.50;69.90
13652;DHT22;6899;51.546;6.912;2024-03-08T14:46:19;11.40;70.40
13652;DHT22;6899;51.546;6.912;2024-03-08T14:48:48;11.40;72.50
13652;DHT22;6899;51.546;6.912;2024-03-08T14:51:17;11.40;72.50
13652;DHT22;6899;51.546;6.912;2024-03-08T14:53:48;11.30;71.70
13652;DHT22;6899;51.546;6.912;2024-03-08T14:56:15;11.20;72.30
13652;DHT22;6899;51.546;6.912;2024-03-08T14:58:42;11.20;70.80
13652;DHT22;6899;51.546;6.912;2024-03-08T15:01:10;11.10;73.30
13652;DHT22;6899;51.546;6.912;2024-03-08T15:03:39;11.10;73.60
13652;DHT22;6899;51.546;6.912;2024-03-08T15:06:06;11.20;73.70
13652;DHT22;6899;51.546;6.912;2024-03-08T15:08:35;11.20;74.70
13652;DHT22;6899;51.546;6.912;2024-03-08T15:11:04;11.10;73.80
13652;DHT22;6899;51.546;6.912;2024-03-08T15:13:32;11.00;74.50
13652;DHT22;6899;51.546;6.912;2024-03-08T15:16:07;11.00;75.40
13652;DHT22;6899;51.546;6.912;2024-03-08T15:18:40;11.10;73.30
13652;DHT22;6899;51.546;6.912;2024-03-08T15:21:11;11.00;73.60
13652;DHT22;6899;51.546;6.912;2024-03-08T15:23:41;10.90;73.80
13652;DHT22;6899;51.546;6.912;2024-03-08T15:26:14;10.80;75.00
13652;DHT22;6899;51.546;6.912;2024-03-08T15:28:42;10.80;76.50
13652;DHT22;6899;51.546;6.912;2024-03-08T15:31:09;10.80;77.60
13652;DHT22;6899;51.546;6.912;2024-03-08T15:33:38;10.80;75.80
13652;DHT22;6899;51.546;6.912;2024-03-08T15:36:10;10.80;77.70
13652;DHT22;6899;51.546;6.912;2024-03-08T15:38:39;10.80;77.20
13652;DHT22;6899;51.546;6.912;2024-03-08T15:41:06;10.70;78.00
13652;DHT22;6899;51.546;6.912;2024-03-08T15:43:37;10.60;78.70
13652;DHT22;6899;51.546;6.912;2024-03-08T15:46:05;10.50;78.90
13652;DHT22;6899;51.546;6.912;2024-03-08T15:48:31;10.50;79.90
13652;DHT22;6899;51.546;6.912;2024-03-08T15:50:59;10.40;81.60
13652;DHT22;6899;51.546;6.912;2024-03-08T15:53:28;10.40;82.20
13652;DHT22;6899;51.546;6.912;2024-03-08T15:55:56;10.30;82.00
13652;DHT22;6899;51.546;6.912;2024-03-08T15:58:22;10.30;81.90
13652;DHT22;6899;51.546;6.912;2024-03-08T16:00:50;10.20;82.50